Flight Track Log - Related Links

Times and Time Zones

All times are in EDT time to prevent confusion due to time zone crossing. See the N277MB flight status page for this flight to view local times or setup timezone preferences in your user account.

Time Position Orientation Groundspeed Altitude Reporting Facility
EDT Latitude Longitude Course Direction KTS MPH feet Rate Location/Type
Mon 12:01:00 PM 18.4261 -68.8710 122° Southeast  Level FlightAware Approximate
Mon 12:02:00 PM 18.4016 -68.8302 122° Southeast  Level FlightAware Approximate
Mon 12:03:00 PM 18.4029 -68.7819 105° East  Level Estimated
Mon 12:04:00 PM 18.3829 -68.7384 116° Southeast  Level FlightAware Approximate
Mon 12:05:00 PM 18.3630 -68.6949 116° Southeast  Level FlightAware Approximate
Mon 12:06:00 PM 18.3650 -68.6467 103° East  Level Estimated
Mon 12:07:00 PM 18.3532 -68.6000 105° East  Level FlightAware Approximate
Mon 12:07:06 PM 18.2500 -67.9000 105° East 180 207 7,000  Level San Juan Center
Mon 12:08:00 PM 18.3414 -68.5534 105° East  Level FlightAware Approximate
Mon 12:08:06 PM 18.2667 -67.8500 71° East 170 196 7,000  Level San Juan Center
Mon 12:09:00 PM 18.3295 -68.5067 105° East  Level FlightAware Approximate
Mon 12:09:07 PM 18.2667 -67.8000 90° East 180 207 7,000  Level San Juan Center
Mon 12:10:00 PM 18.3177 -68.4601 105° East  Level FlightAware Approximate
Mon 12:10:07 PM 18.2833 -67.7500 71° East 180 207 7,000  Level San Juan Center
Mon 12:11:00 PM 18.3058 -68.4134 105° East  Level FlightAware Approximate
Mon 12:11:07 PM 18.2833 -67.6833 90° East 180 207 7,000  Level San Juan Center
Mon 12:12:00 PM 18.2939 -68.3668 105° East  Level FlightAware Approximate
Mon 12:13:00 PM 18.2820 -68.3201 105° East  Level FlightAware Approximate
Mon 12:13:08 PM 18.3000 -67.5833 80° East 180 207 7,000  Level San Juan Center
Mon 12:15:09 PM 18.3000 -67.4833 90° East 180 207 7,000  Level San Juan Center
Mon 12:16:09 PM 18.3167 -67.4333 71° East 180 207 7,000  Level San Juan Center
Mon 12:17:09 PM 18.3167 -67.3667 90° East 190 219 7,000  Level San Juan Center
Mon 12:18:10 PM 18.3333 -67.3167 71° East 180 207 7,000  Level San Juan Center
Mon 12:19:10 PM 18.3333 -67.2667 90° East 180 207 7,000  Level San Juan Center
Mon 12:21:00 PM 18.3468 -67.1504 83° East  Level FlightAware Approximate
Mon 12:23:11 PM 18.3500 -67.0500 83° East 180 207 7,000  Level San Juan Center
Mon 12:24:11 PM 18.3667 -67.0000 71° East 180 207 7,000  Level San Juan Center
Mon 12:26:12 PM 18.3833 -66.9000 80° East 180 207 7,000  Level San Juan Center
Mon 12:27:12 PM 18.3833 -66.8500 90° East 190 219 7,000  Level San Juan Center
Mon 12:28:00 PM 18.3974 -66.7063 83° East  Level FlightAware Approximate
Mon 12:28:13 PM 18.4000 -66.8000 71° East 180 207 7,000  Level San Juan Center
Mon 12:29:13 PM 18.4000 -66.7333 90° East 200 230 6,400 -550 Descending San Juan Center
Mon 12:30:13 PM 18.4167 -66.6833 71° East 200 230 5,900 -500 Descending San Juan Center
Mon 12:32:13 PM 18.4333 -66.5667 81° East 200 230 4,900 -464 Descending San Juan Center
Mon 12:33:14 PM 18.4333 -66.5000 90° East 190 219 4,500 -397 Descending San Juan Center
Mon 12:34:14 PM 18.4333 -66.4500 90° East 190 219 4,100 -331 Descending San Juan Center
Mon 12:36:15 PM 18.4500 -66.3500 80° East 180 207 3,500 -298 Descending San Juan Center
Mon 12:38:00 PM 18.4500 -66.2367 90° East  Level FlightAware Approximate
Mon 12:45:00 PM 18.4568 -66.0981 90° East  Level Estimated
Mon 12:46:00 PM 18.4568 -66.0981 90° East  Level Estimated
Mon 12:47:00 PM 18.4568 -66.0981 90° East  Level Estimated
Mon 12:48:00 PM 18.4568 -66.0981 90° East  Level Estimated
Mon 12:49:00 PM 18.4568 -66.0981 90° East  Level Estimated
Mon 12:50:00 PM 18.4568 -66.0981 90° East  Level Estimated
Mon 12:51:00 PM 18.4568 -66.0981 90° East  Level Estimated
Mon 12:52:00 PM 18.4568 -66.0981 90° East  Level Estimated
Mon 12:53:00 PM 18.4568 -66.0981 90° East  Level Estimated
Mon 12:54:00 PM 18.4568 -66.0981 90° East  Level Estimated
Mon 12:55:00 PM 18.4568 -66.0981 90° East  Level Estimated
Mon 12:56:00 PM 18.4568 -66.0981 90° East  Level Estimated
Mon 12:57:00 PM 18.4568 -66.0981 90° East  Level Estimated
Mon 12:58:00 PM 18.4568 -66.0981 90° East  Level Estimated
Mon 12:59:00 PM 18.4568 -66.0981 90° East  Level Estimated
Mon 01:00:00 PM 18.4568 -66.0981 90° East  Level Estimated

Login

Don't have an account? Register now (free) for customized features, flight alerts, and more!